createdAt,value
2023-03-17T00:00:25.322Z,88.16
2023-03-17T00:02:43.206Z,88.35
2023-03-17T00:04:38.747Z,88.10
2023-03-17T00:06:37.071Z,89.05
2023-03-17T00:08:37.196Z,88.96
2023-03-17T00:10:35.404Z,89.88
2023-03-17T00:12:32.448Z,89.95
2023-03-17T00:14:29.639Z,90.86
2023-03-17T00:16:28.641Z,90.57
2023-03-17T00:18:25.225Z,90.89
2023-03-17T00:20:28.327Z,90.35
2023-03-17T00:22:24.947Z,90.69
2023-03-17T00:24:20.299Z,91.35
2023-03-17T00:26:19.428Z,91.77
2023-03-17T00:28:21.442Z,93.25
2023-03-17T00:30:17.783Z,92.09
2023-03-17T00:32:20.236Z,92.49
2023-03-17T00:34:19.354Z,92.57
2023-03-17T00:36:19.379Z,92.90
2023-03-17T00:38:18.894Z,93.19
2023-03-17T00:40:20.410Z,93.11
2023-03-17T00:42:18.846Z,92.59
2023-03-17T00:44:14.510Z,92.27
2023-03-17T00:46:15.003Z,92.78
2023-03-17T00:48:16.786Z,92.44
2023-03-17T00:50:16.653Z,92.60
2023-03-17T00:52:12.363Z,92.78
2023-03-17T00:54:08.614Z,92.85
2023-03-17T00:56:03.952Z,92.72
2023-03-17T00:58:01.453Z,93.59
2023-03-17T00:59:56.893Z,93.92
2023-03-17T01:01:52.165Z,94.66
2023-03-17T01:03:47.501Z,94.72
2023-03-17T01:05:43.465Z,94.66
2023-03-17T01:07:38.990Z,95.20
2023-03-17T01:09:34.996Z,95.56
2023-03-17T01:11:30.623Z,96.12
2023-03-17T01:13:28.437Z,96.26
2023-03-17T01:15:25.550Z,95.98
2023-03-17T01:17:21.345Z,96.32
2023-03-17T01:19:17.207Z,97.12
2023-03-17T01:21:12.706Z,96.31
2023-03-17T01:23:09.473Z,96.85
2023-03-17T01:25:05.001Z,96.90
2023-03-17T01:27:00.514Z,97.49
2023-03-17T01:28:58.961Z,98.03
2023-03-17T01:30:54.264Z,98.33
2023-03-17T01:32:49.750Z,98.07
2023-03-17T01:34:44.764Z,98.24
2023-03-17T01:36:41.381Z,98.54
2023-03-17T01:38:36.443Z,99.13
2023-03-17T01:40:33.849Z,99.99
2023-03-17T01:42:28.770Z,100.00
2023-03-17T01:44:27.477Z,100.00
2023-03-17T01:46:28.189Z,100.00
2023-03-17T01:48:21.966Z,100.00
2023-03-17T01:50:16.934Z,100.00
2023-03-17T01:52:16.943Z,100.00
2023-03-17T01:54:17.100Z,100.00
2023-03-17T01:56:12.229Z,100.00
2023-03-17T01:58:07.516Z,100.00
2023-03-17T02:00:09.264Z,100.00
2023-03-17T02:02:08.791Z,100.00
2023-03-17T02:04:04.513Z,100.00
2023-03-17T02:06:00.652Z,100.00
2023-03-17T02:07:56.474Z,100.00
2023-03-17T02:09:52.598Z,100.00
2023-03-17T02:11:49.144Z,100.00
2023-03-17T02:13:44.997Z,100.00
2023-03-17T02:15:44.661Z,100.00
2023-03-17T02:17:40.251Z,100.00
2023-03-17T02:19:35.294Z,100.00
2023-03-17T02:21:35.343Z,100.00
2023-03-17T02:23:30.634Z,100.00
2023-03-17T02:25:28.484Z,100.00
2023-03-17T02:27:27.715Z,100.00
2023-03-17T02:29:23.842Z,100.00
2023-03-17T02:31:17.293Z,100.00
2023-03-17T02:33:12.363Z,100.00
2023-03-17T02:35:09.108Z,100.00
2023-03-17T02:37:07.771Z,100.00
2023-03-17T02:39:03.176Z,100.00
2023-03-17T02:40:58.198Z,100.00
2023-03-17T02:42:54.119Z,100.00
2023-03-17T02:44:49.574Z,100.00
2023-03-17T02:46:45.232Z,100.00
2023-03-17T02:48:41.591Z,100.00
2023-03-17T02:50:37.512Z,100.00
2023-03-17T02:52:34.986Z,100.00
2023-03-17T02:54:30.285Z,100.00
2023-03-17T02:56:25.295Z,100.00
2023-03-17T02:58:20.488Z,100.00
2023-03-17T03:00:16.787Z,100.00
2023-03-17T03:02:12.552Z,100.00
2023-03-17T03:04:07.851Z,100.00
2023-03-17T03:06:03.313Z,100.00
2023-03-17T03:08:01.419Z,100.00
2023-03-17T03:09:56.393Z,100.00
2023-03-17T03:11:52.264Z,100.00
2023-03-17T03:13:47.565Z,100.00
2023-03-17T03:15:42.008Z,100.00
2023-03-17T03:17:36.968Z,100.00
2023-03-17T03:19:32.308Z,100.00
2023-03-17T03:21:27.672Z,100.00
2023-03-17T03:23:25.536Z,100.00
2023-03-17T03:25:20.942Z,100.00
2023-03-17T03:27:16.917Z,100.00
2023-03-17T03:29:12.211Z,100.00
2023-03-17T03:31:08.007Z,100.00
2023-03-17T03:33:02.990Z,100.00
2023-03-17T03:34:58.303Z,100.00
2023-03-17T03:36:53.308Z,100.00
2023-03-17T03:38:48.654Z,100.00
2023-03-17T03:40:43.670Z,100.00
2023-03-17T03:42:38.884Z,100.00
2023-03-17T03:44:33.993Z,100.00
2023-03-17T03:46:29.437Z,100.00
2023-03-17T03:48:25.117Z,100.00
2023-03-17T03:50:21.105Z,100.00
2023-03-17T03:52:16.065Z,100.00
2023-03-17T03:54:14.001Z,100.00
2023-03-17T03:56:09.980Z,100.00
2023-03-17T03:58:05.319Z,100.00
2023-03-17T04:00:00.326Z,100.00
2023-03-17T04:01:55.688Z,100.00
2023-03-17T04:03:51.329Z,100.00
2023-03-17T04:05:46.591Z,100.00
2023-03-17T04:07:41.817Z,100.00
2023-03-17T04:09:40.183Z,100.00
2023-03-17T04:11:35.116Z,100.00
2023-03-17T04:13:30.340Z,100.00
2023-03-17T04:15:25.322Z,100.00
2023-03-17T04:17:20.936Z,100.00
2023-03-17T04:19:16.363Z,100.00
2023-03-17T04:21:12.292Z,100.00
2023-03-17T04:23:07.911Z,100.00
2023-03-17T04:25:06.101Z,100.00
2023-03-17T04:27:01.042Z,100.00
2023-03-17T04:28:56.277Z,100.00
2023-03-17T04:30:54.789Z,100.00
2023-03-17T04:32:50.072Z,100.00
2023-03-17T04:34:45.782Z,100.00
2023-03-17T04:36:40.983Z,100.00
2023-03-17T04:38:36.076Z,99.67
2023-03-17T04:40:33.988Z,100.00
2023-03-17T04:42:28.908Z,100.00
2023-03-17T04:44:24.182Z,100.00
2023-03-17T04:46:19.109Z,100.00
2023-03-17T04:48:14.381Z,100.00
2023-03-17T04:50:10.209Z,100.00
2023-03-17T04:52:05.853Z,100.00
2023-03-17T04:54:01.508Z,100.00
2023-03-17T04:55:59.648Z,99.49
2023-03-17T04:57:54.874Z,100.00
2023-03-17T04:59:50.392Z,99.23
2023-03-17T05:01:46.010Z,99.39
2023-03-17T05:03:41.667Z,99.09
2023-03-17T05:05:37.142Z,98.46
2023-03-17T05:07:34.114Z,98.22
2023-03-17T05:09:30.013Z,98.55
2023-03-17T05:11:27.795Z,98.07
2023-03-17T05:13:23.424Z,98.12
2023-03-17T05:15:18.986Z,97.11
2023-03-17T05:17:14.672Z,96.38
2023-03-17T05:19:09.881Z,97.24
2023-03-17T05:21:06.307Z,96.28
2023-03-17T05:23:01.683Z,96.47
2023-03-17T05:24:57.233Z,96.42
2023-03-17T05:26:55.204Z,96.05
2023-03-17T05:28:51.117Z,96.46
2023-03-17T05:30:46.428Z,97.40
2023-03-17T05:32:42.015Z,97.26
2023-03-17T05:34:37.291Z,97.04
2023-03-17T05:36:33.522Z,96.98
2023-03-17T05:38:28.538Z,97.47
2023-03-17T05:40:24.026Z,96.38
2023-03-17T05:42:22.127Z,97.02
2023-03-17T05:44:17.460Z,96.04
2023-03-17T05:46:12.468Z,95.85
2023-03-17T05:48:08.541Z,95.89
2023-03-17T05:50:04.757Z,95.70
2023-03-17T05:52:00.175Z,95.24
2023-03-17T05:53:55.086Z,95.34
2023-03-17T05:55:52.032Z,94.87
2023-03-17T05:57:49.811Z,95.08
2023-03-17T05:59:45.489Z,94.49
2023-03-17T06:01:40.721Z,95.43
2023-03-17T06:03:38.700Z,94.39
2023-03-17T06:05:33.845Z,94.88
2023-03-17T06:07:38.178Z,94.94
2023-03-17T06:09:43.532Z,94.43
2023-03-17T06:11:38.956Z,95.35
2023-03-17T06:13:36.555Z,95.09
2023-03-17T06:15:32.757Z,94.32
2023-03-17T06:17:28.077Z,94.89
2023-03-17T06:19:23.684Z,94.68
2023-03-17T06:21:18.886Z,92.51
2023-03-17T06:23:14.326Z,92.12
2023-03-17T06:25:10.199Z,92.57
2023-03-17T06:27:05.705Z,92.33
2023-03-17T06:29:03.502Z,91.29
2023-03-17T06:30:58.780Z,92.11
2023-03-17T06:32:53.927Z,92.38
2023-03-17T06:34:49.266Z,91.82
2023-03-17T06:36:44.185Z,91.08
2023-03-17T06:38:39.458Z,91.73
2023-03-17T06:40:34.813Z,91.27
2023-03-17T06:42:30.718Z,90.51
2023-03-17T06:44:28.269Z,89.86
2023-03-17T06:46:23.602Z,89.12
2023-03-17T06:48:18.535Z,87.98
2023-03-17T06:50:14.909Z,87.89
2023-03-17T06:52:10.454Z,88.48
2023-03-17T06:54:06.546Z,87.53
2023-03-17T06:56:01.498Z,87.86
2023-03-17T06:57:56.981Z,87.68
2023-03-17T06:59:54.499Z,88.81
2023-03-17T07:01:51.902Z,87.55
2023-03-17T07:03:46.947Z,86.15
2023-03-17T07:05:42.250Z,86.56
2023-03-17T07:07:38.799Z,86.17
2023-03-17T07:09:34.287Z,85.87
2023-03-17T07:11:30.750Z,85.51
2023-03-17T07:13:27.314Z,86.31
2023-03-17T07:15:24.851Z,84.33
2023-03-17T07:17:20.357Z,85.31
2023-03-17T07:19:15.618Z,83.47
2023-03-17T07:21:10.847Z,83.25
2023-03-17T07:23:06.059Z,83.32
2023-03-17T07:25:01.350Z,83.23
2023-03-17T07:26:56.419Z,83.52
2023-03-17T07:28:51.964Z,82.54
2023-03-17T07:30:50.981Z,82.31
2023-03-17T07:32:46.273Z,81.47
2023-03-17T07:34:41.764Z,81.68
2023-03-17T07:36:37.558Z,81.11
2023-03-17T07:38:33.287Z,81.05
2023-03-17T07:40:29.817Z,79.05
2023-03-17T07:42:25.161Z,78.50
2023-03-17T07:44:20.987Z,79.43
2023-03-17T07:46:18.948Z,78.35
2023-03-17T07:48:14.655Z,76.56
2023-03-17T07:50:10.885Z,74.97
2023-03-17T07:52:07.036Z,77.04
2023-03-17T07:54:04.169Z,77.31
2023-03-17T07:55:59.944Z,75.83
2023-03-17T07:57:55.529Z,79.38
2023-03-17T07:59:51.450Z,75.96
2023-03-17T08:01:49.303Z,79.39
2023-03-17T08:03:45.142Z,81.32
2023-03-17T08:05:41.101Z,79.33
2023-03-17T08:07:37.432Z,77.63
2023-03-17T08:09:32.670Z,75.59
2023-03-17T08:11:29.540Z,78.99
2023-03-17T08:13:24.882Z,77.86
2023-03-17T08:15:22.029Z,78.91
2023-03-17T08:17:20.126Z,72.65
2023-03-17T08:19:16.280Z,74.17
2023-03-17T08:21:14.739Z,73.87
2023-03-17T08:23:11.378Z,73.73
2023-03-17T08:25:07.283Z,72.29
2023-03-17T08:27:04.010Z,72.23
2023-03-17T08:28:59.280Z,73.76
2023-03-17T08:30:54.913Z,71.93
2023-03-17T08:32:53.981Z,73.67
2023-03-17T08:34:49.597Z,78.39
2023-03-17T08:36:44.895Z,77.65
2023-03-17T08:38:41.868Z,73.22
2023-03-17T08:40:37.357Z,77.09
2023-03-17T08:42:32.965Z,75.01
2023-03-17T08:44:28.115Z,69.61
2023-03-17T08:46:27.121Z,72.49
2023-03-17T08:48:24.980Z,68.65
2023-03-17T08:50:23.147Z,72.09
2023-03-17T08:52:18.825Z,71.70
2023-03-17T08:54:15.264Z,67.57
2023-03-17T08:56:11.746Z,65.50
2023-03-17T08:58:06.932Z,68.23
2023-03-17T09:00:02.060Z,72.14
2023-03-17T09:01:57.397Z,72.12
2023-03-17T09:03:56.753Z,69.60
2023-03-17T09:05:52.940Z,67.46
2023-03-17T09:07:49.107Z,69.52
2023-03-17T09:09:44.445Z,70.07
2023-03-17T09:11:40.172Z,67.51
2023-03-17T09:13:37.271Z,68.07
2023-03-17T09:15:33.908Z,67.53
2023-03-17T09:17:29.435Z,66.59
2023-03-17T09:19:26.977Z,66.32
2023-03-17T09:21:22.647Z,66.66
2023-03-17T09:23:17.580Z,64.80
2023-03-17T09:25:12.877Z,64.33
2023-03-17T09:27:08.094Z,63.82
2023-03-17T09:29:04.653Z,64.09
2023-03-17T09:31:01.368Z,64.98
2023-03-17T09:32:56.741Z,63.79
2023-03-17T09:34:54.408Z,62.63
2023-03-17T09:36:49.628Z,61.29
2023-03-17T09:38:44.558Z,61.87
2023-03-17T09:40:46.823Z,63.82
2023-03-17T09:42:52.829Z,63.62
2023-03-17T09:45:01.352Z,59.94
2023-03-17T09:47:05.355Z,62.15
2023-03-17T09:49:04.133Z,58.74
2023-03-17T09:51:05.984Z,60.31
2023-03-17T09:53:05.064Z,58.70
2023-03-17T09:55:01.714Z,56.24
2023-03-17T09:57:04.547Z,55.44
2023-03-17T09:59:07.855Z,53.45
2023-03-17T10:01:05.320Z,53.61
2023-03-17T10:03:01.611Z,54.59
2023-03-17T10:04:57.658Z,53.74
2023-03-17T10:07:00.008Z,51.78
2023-03-17T10:09:01.523Z,51.14
2023-03-17T10:11:04.601Z,54.27
2023-03-17T10:13:08.452Z,49.91
2023-03-17T10:15:06.751Z,50.92
2023-03-17T10:17:06.665Z,48.61
2023-03-17T10:19:05.546Z,49.16
2023-03-17T10:21:04.972Z,50.15
2023-03-17T10:23:06.353Z,48.68
2023-03-17T10:25:07.258Z,49.60
2023-03-17T10:27:06.420Z,47.26
2023-03-17T10:29:04.133Z,47.45
2023-03-17T10:31:04.199Z,46.98
2023-03-17T10:33:03.291Z,48.38
2023-03-17T10:34:59.381Z,47.98
2023-03-17T10:36:57.592Z,48.44
2023-03-17T10:38:58.788Z,48.48
2023-03-17T10:40:59.956Z,48.65
2023-03-17T10:42:58.209Z,48.87
2023-03-17T10:44:57.162Z,47.42
2023-03-17T10:46:57.077Z,45.77
2023-03-17T10:48:56.561Z,46.33
2023-03-17T10:50:54.314Z,46.42
2023-03-17T10:52:52.170Z,46.36
2023-03-17T10:54:54.490Z,49.88
2023-03-17T10:56:52.323Z,46.29
2023-03-17T10:58:51.501Z,46.22
2023-03-17T11:00:57.272Z,46.19
2023-03-17T11:02:58.119Z,46.25
2023-03-17T11:04:57.730Z,44.89
2023-03-17T11:06:53.881Z,44.81
2023-03-17T11:08:51.691Z,45.00
2023-03-17T11:10:57.558Z,44.40
2023-03-17T11:12:58.937Z,42.67
2023-03-17T11:15:00.507Z,43.22
2023-03-17T11:16:58.009Z,44.94
2023-03-17T11:18:57.745Z,43.78
2023-03-17T11:20:59.285Z,45.42
2023-03-17T11:23:02.222Z,43.89
2023-03-17T11:25:06.377Z,41.86
2023-03-17T11:27:14.534Z,42.23
2023-03-17T11:29:26.753Z,42.47
2023-03-17T11:31:31.111Z,41.43
2023-03-17T11:33:41.994Z,42.42
2023-03-17T11:35:59.747Z,43.72
2023-03-17T11:38:07.293Z,41.18
2023-03-17T11:40:09.789Z,41.81
2023-03-17T11:42:19.371Z,41.99
2023-03-17T11:44:47.456Z,41.58
2023-03-17T11:46:49.438Z,41.27
2023-03-17T11:48:55.186Z,41.12
2023-03-17T11:50:58.273Z,41.58
2023-03-17T11:53:05.400Z,40.09
2023-03-17T11:55:08.075Z,40.12
2023-03-17T11:57:06.129Z,39.64
2023-03-17T11:59:08.459Z,39.66
2023-03-17T12:01:09.022Z,40.45
2023-03-17T12:03:16.645Z,40.32
2023-03-17T12:05:15.731Z,39.70
2023-03-17T12:07:20.765Z,40.87
2023-03-17T12:09:27.766Z,41.55
2023-03-17T12:11:28.360Z,40.78
2023-03-17T12:13:30.512Z,39.53
2023-03-17T12:15:34.367Z,39.46
2023-03-17T12:17:38.750Z,38.89
2023-03-17T12:19:42.524Z,40.26
2023-03-17T12:21:42.024Z,40.62
2023-03-17T12:23:42.352Z,39.92
2023-03-17T12:25:45.055Z,39.43
2023-03-17T12:27:46.932Z,38.87
2023-03-17T12:29:47.456Z,39.10
2023-03-17T12:31:49.663Z,39.47
2023-03-17T12:33:52.628Z,39.60
2023-03-17T12:35:48.092Z,39.30
2023-03-17T12:37:43.203Z,39.40
2023-03-17T12:39:40.569Z,38.42
2023-03-17T12:42:02.947Z,38.70
2023-03-17T12:44:14.418Z,38.76
2023-03-17T12:46:29.185Z,38.79
2023-03-17T12:48:52.231Z,38.55
2023-03-17T12:51:10.796Z,38.66
2023-03-17T12:53:27.411Z,38.75
2023-03-17T12:55:28.176Z,39.09
2023-03-17T12:57:25.751Z,38.68
2023-03-17T12:59:24.302Z,39.41
2023-03-17T13:01:28.529Z,38.96
2023-03-17T13:03:27.875Z,39.00
2023-03-17T13:05:37.279Z,38.17
2023-03-17T13:07:36.736Z,38.45
2023-03-17T13:09:39.545Z,38.72
2023-03-17T13:11:50.085Z,39.32
2023-03-17T13:13:49.587Z,38.64
2023-03-17T13:15:55.323Z,38.26
2023-03-17T13:17:50.498Z,38.34
2023-03-17T13:19:58.469Z,39.15
2023-03-17T13:22:39.430Z,39.01
2023-03-17T13:24:47.235Z,39.22
2023-03-17T13:26:58.137Z,39.10
2023-03-17T13:28:54.205Z,39.60
2023-03-17T13:31:02.196Z,39.29
2023-03-17T13:32:59.541Z,40.00
2023-03-17T13:34:56.588Z,39.34
2023-03-17T13:37:01.059Z,39.07
2023-03-17T13:39:33.169Z,38.65
2023-03-17T13:41:44.243Z,37.62
2023-03-17T13:43:59.061Z,38.21
2023-03-17T13:45:54.845Z,38.52
2023-03-17T13:47:52.644Z,39.45
2023-03-17T13:49:51.079Z,39.94
2023-03-17T13:51:59.564Z,39.19
2023-03-17T13:53:59.039Z,39.00
2023-03-17T13:56:14.536Z,38.66
2023-03-17T13:58:35.930Z,38.94
2023-03-17T14:00:33.112Z,38.41
2023-03-17T14:02:31.855Z,37.98
2023-03-17T14:04:30.989Z,38.39
2023-03-17T14:06:31.360Z,38.91
2023-03-17T14:08:32.511Z,38.03
2023-03-17T14:10:31.558Z,38.27
2023-03-17T14:12:33.407Z,38.75
2023-03-17T14:14:41.034Z,38.15
2023-03-17T14:16:39.645Z,38.75
2023-03-17T14:18:37.867Z,39.70
2023-03-17T14:20:33.312Z,39.86
2023-03-17T14:22:29.312Z,38.25
2023-03-17T14:24:26.449Z,38.70
2023-03-17T14:26:21.862Z,38.94
2023-03-17T14:28:20.751Z,38.35
2023-03-17T14:30:24.371Z,38.70
2023-03-17T14:32:23.420Z,39.21
2023-03-17T14:34:19.459Z,39.09
2023-03-17T14:36:16.165Z,38.28
2023-03-17T14:38:20.588Z,38.52
2023-03-17T14:40:27.450Z,38.22
2023-03-17T14:42:29.893Z,37.99
2023-03-17T14:44:25.328Z,38.40
2023-03-17T14:46:25.681Z,38.33
2023-03-17T14:48:28.537Z,38.28
2023-03-17T14:50:28.176Z,37.76
2023-03-17T14:52:27.374Z,38.01
2023-03-17T14:54:24.326Z,38.01
2023-03-17T14:56:26.017Z,38.23
2023-03-17T14:58:26.363Z,39.37
2023-03-17T15:00:37.948Z,38.10
2023-03-17T15:02:40.092Z,38.27
2023-03-17T15:04:37.045Z,38.77
2023-03-17T15:06:34.463Z,38.81
2023-03-17T15:08:45.999Z,39.40
2023-03-17T15:10:47.453Z,38.94
2023-03-17T15:12:43.070Z,39.75
2023-03-17T15:14:41.691Z,39.72
2023-03-17T15:16:38.473Z,39.32
2023-03-17T15:18:36.954Z,39.00
2023-03-17T15:20:33.883Z,39.70
2023-03-17T15:22:33.362Z,39.73
2023-03-17T15:24:34.467Z,40.07
2023-03-17T15:26:33.946Z,39.57
2023-03-17T15:28:31.900Z,39.78
2023-03-17T15:30:45.735Z,40.11
2023-03-17T15:32:42.911Z,40.16
2023-03-17T15:34:40.439Z,39.54
2023-03-17T15:36:35.781Z,39.59
2023-03-17T15:38:31.534Z,39.27
2023-03-17T15:40:27.135Z,39.45
2023-03-17T15:42:24.770Z,39.45
2023-03-17T15:44:20.077Z,39.00
2023-03-17T15:46:23.085Z,38.84
2023-03-17T15:48:23.583Z,38.59
2023-03-17T15:50:28.808Z,38.79
2023-03-17T15:52:26.104Z,39.07
2023-03-17T15:54:21.399Z,38.89
2023-03-17T15:56:22.526Z,38.97
2023-03-17T15:58:18.081Z,38.58
2023-03-17T16:00:18.926Z,38.64
2023-03-17T16:02:32.695Z,39.12
2023-03-17T16:04:28.268Z,39.11
2023-03-17T16:06:27.226Z,38.68
2023-03-17T16:08:23.147Z,38.70
2023-03-17T16:10:19.968Z,39.16
2023-03-17T16:12:15.415Z,39.27
2023-03-17T16:14:10.699Z,39.60
2023-03-17T16:16:06.222Z,39.56
2023-03-17T16:18:05.260Z,39.83
2023-03-17T16:20:01.090Z,39.80
2023-03-17T16:22:00.159Z,39.88
2023-03-17T16:23:56.029Z,39.57
2023-03-17T16:25:53.980Z,39.86
2023-03-17T16:27:54.896Z,39.70
2023-03-17T16:29:53.433Z,40.13
2023-03-17T16:31:51.866Z,39.90
2023-03-17T16:33:50.138Z,39.90
2023-03-17T16:35:45.654Z,40.48
2023-03-17T16:37:45.552Z,40.39
2023-03-17T16:39:52.332Z,40.32
2023-03-17T16:41:49.367Z,40.30
2023-03-17T16:43:51.108Z,40.45
2023-03-17T16:45:47.084Z,40.49
2023-03-17T16:47:53.977Z,40.80
2023-03-17T16:50:00.683Z,40.88
2023-03-17T16:52:04.793Z,40.70
2023-03-17T16:54:48.316Z,40.71
2023-03-17T16:56:59.979Z,41.15
2023-03-17T16:59:09.469Z,41.18
2023-03-17T17:01:09.706Z,41.82
2023-03-17T17:03:06.158Z,41.92
2023-03-17T17:05:03.685Z,41.95
2023-03-17T17:06:59.837Z,41.81
2023-03-17T17:08:58.786Z,42.22
2023-03-17T17:11:04.313Z,42.18
2023-03-17T17:13:02.850Z,42.37
2023-03-17T17:14:59.816Z,42.05
2023-03-17T17:16:57.547Z,41.79
2023-03-17T17:18:53.359Z,41.99
2023-03-17T17:20:48.910Z,42.11
2023-03-17T17:22:44.208Z,42.50
2023-03-17T17:24:39.544Z,42.10
2023-03-17T17:26:37.248Z,42.18
2023-03-17T17:28:33.054Z,42.84
2023-03-17T17:30:30.793Z,42.64
2023-03-17T17:32:26.204Z,42.72
2023-03-17T17:34:21.148Z,43.00
2023-03-17T17:36:18.950Z,43.14
2023-03-17T17:38:21.366Z,43.16
2023-03-17T17:40:18.644Z,43.60
2023-03-17T17:42:17.533Z,43.58
2023-03-17T17:44:12.792Z,43.97
2023-03-17T17:46:13.141Z,43.91
2023-03-17T17:48:08.689Z,43.88
2023-03-17T17:50:03.719Z,43.99
2023-03-17T17:51:58.986Z,43.62
2023-03-17T17:53:54.444Z,43.87
2023-03-17T17:55:51.912Z,44.06
2023-03-17T17:57:51.951Z,44.12
2023-03-17T17:59:47.660Z,44.59
2023-03-17T18:01:42.613Z,44.44
2023-03-17T18:03:37.905Z,44.41
2023-03-17T18:05:34.645Z,44.08
2023-03-17T18:07:29.726Z,44.51
2023-03-17T18:09:25.607Z,44.76
2023-03-17T18:11:21.337Z,45.05
2023-03-17T18:13:19.809Z,45.33
2023-03-17T18:15:14.881Z,45.47
2023-03-17T18:17:10.358Z,45.39
2023-03-17T18:19:06.104Z,45.28
2023-03-17T18:21:01.384Z,45.56
2023-03-17T18:22:56.779Z,45.86
2023-03-17T18:24:52.294Z,45.81
2023-03-17T18:26:47.327Z,45.93
2023-03-17T18:28:46.046Z,45.99
2023-03-17T18:30:41.329Z,46.10
2023-03-17T18:32:37.238Z,46.42
2023-03-17T18:34:36.628Z,46.38
2023-03-17T18:36:32.702Z,46.50
2023-03-17T18:38:27.882Z,46.39
2023-03-17T18:40:23.451Z,46.80
2023-03-17T18:42:18.482Z,46.74
2023-03-17T18:44:16.434Z,46.97
2023-03-17T18:46:12.732Z,47.38
2023-03-17T18:48:08.491Z,47.53
2023-03-17T18:50:03.755Z,48.12
2023-03-17T18:51:59.836Z,47.88
2023-03-17T18:53:55.295Z,48.29
2023-03-17T18:55:50.971Z,48.10
2023-03-17T18:57:46.723Z,48.66
2023-03-17T18:59:45.186Z,47.58
2023-03-17T19:01:41.019Z,48.06
2023-03-17T19:03:36.596Z,47.76
2023-03-17T19:05:31.753Z,47.63
2023-03-17T19:07:27.007Z,47.85
2023-03-17T19:09:22.322Z,47.91
2023-03-17T19:11:21.509Z,48.34
2023-03-17T19:13:16.898Z,48.45
2023-03-17T19:15:16.051Z,48.61
2023-03-17T19:17:11.709Z,48.68
2023-03-17T19:19:07.023Z,49.19
2023-03-17T19:21:02.238Z,49.44
2023-03-17T19:22:58.370Z,49.68
2023-03-17T19:24:53.392Z,49.80
2023-03-17T19:26:48.963Z,50.66
2023-03-17T19:28:44.061Z,50.39
2023-03-17T19:30:44.903Z,50.50
2023-03-17T19:32:39.927Z,50.84
2023-03-17T19:34:35.319Z,51.09
2023-03-17T19:36:30.217Z,51.74
2023-03-17T19:38:25.669Z,51.86
2023-03-17T19:40:20.969Z,52.45
2023-03-17T19:42:16.290Z,53.08
2023-03-17T19:44:11.334Z,53.86
2023-03-17T19:46:09.291Z,53.83
2023-03-17T19:48:04.513Z,54.84
2023-03-17T19:50:00.010Z,55.77
2023-03-17T19:51:55.019Z,56.37
2023-03-17T19:53:50.437Z,57.27
2023-03-17T19:55:45.487Z,57.23
2023-03-17T19:57:41.180Z,58.64
2023-03-17T19:59:36.144Z,59.11
2023-03-17T20:01:34.312Z,60.28
2023-03-17T20:03:29.808Z,61.46
2023-03-17T20:05:25.214Z,61.76
2023-03-17T20:07:20.325Z,62.04
2023-03-17T20:09:16.055Z,61.99
2023-03-17T20:11:11.799Z,62.36
2023-03-17T20:13:07.241Z,62.61
2023-03-17T20:15:02.923Z,63.30
2023-03-17T20:17:00.852Z,64.53
2023-03-17T20:18:56.029Z,65.74
2023-03-17T20:20:54.898Z,66.73
2023-03-17T20:22:49.924Z,66.64
2023-03-17T20:24:45.766Z,66.57
2023-03-17T20:26:41.672Z,66.45
2023-03-17T20:28:38.722Z,67.70
2023-03-17T20:30:34.239Z,68.75
2023-03-17T20:32:32.661Z,69.88
2023-03-17T20:34:27.772Z,70.59
2023-03-17T20:36:23.182Z,71.11
2023-03-17T20:38:18.673Z,71.64
2023-03-17T20:40:15.631Z,72.25
2023-03-17T20:42:14.519Z,72.16
2023-03-17T20:44:10.162Z,71.33
2023-03-17T20:46:05.874Z,71.04
2023-03-17T20:48:06.095Z,70.70
2023-03-17T20:50:01.033Z,70.15
2023-03-17T20:51:56.289Z,70.09
2023-03-17T20:53:53.355Z,71.35
2023-03-17T20:55:49.210Z,72.47
2023-03-17T20:57:47.515Z,72.14
2023-03-17T20:59:43.859Z,72.13
2023-03-17T21:01:40.620Z,73.34
2023-03-17T21:03:38.972Z,73.08
2023-03-17T21:05:35.618Z,73.38
2023-03-17T21:07:31.217Z,74.27
2023-03-17T21:09:26.488Z,74.03
2023-03-17T21:11:23.173Z,75.50
2023-03-17T21:13:18.417Z,76.21
2023-03-17T21:15:14.726Z,75.73
2023-03-17T21:17:09.755Z,76.08
2023-03-17T21:19:09.665Z,76.87
2023-03-17T21:21:04.715Z,77.61
2023-03-17T21:23:00.441Z,77.89
2023-03-17T21:24:55.485Z,77.74
2023-03-17T21:26:50.728Z,77.56
2023-03-17T21:28:46.503Z,78.02
2023-03-17T21:30:44.752Z,78.64
2023-03-17T21:32:39.661Z,78.42
2023-03-17T21:34:38.258Z,78.32
2023-03-17T21:36:33.712Z,78.19
2023-03-17T21:38:30.292Z,78.92
2023-03-17T21:40:26.176Z,79.37
2023-03-17T21:42:21.817Z,79.16
2023-03-17T21:44:17.793Z,79.08
2023-03-17T21:46:14.450Z,79.38
2023-03-17T21:48:09.626Z,79.12
2023-03-17T21:50:08.180Z,79.07
2023-03-17T21:52:03.189Z,78.88
2023-03-17T21:53:58.502Z,78.99
2023-03-17T21:55:53.912Z,79.77
2023-03-17T21:57:49.179Z,80.10
2023-03-17T21:59:44.217Z,80.57
2023-03-17T22:01:40.480Z,81.39
2023-03-17T22:03:36.576Z,81.66
2023-03-17T22:05:34.546Z,81.92
2023-03-17T22:07:29.973Z,82.84
2023-03-17T22:09:25.345Z,83.13
2023-03-17T22:11:21.628Z,82.65
2023-03-17T22:13:17.017Z,82.35
2023-03-17T22:15:13.560Z,81.61
2023-03-17T22:17:09.159Z,81.27
2023-03-17T22:19:04.114Z,80.73
2023-03-17T22:21:02.736Z,80.17
2023-03-17T22:22:57.836Z,81.32
2023-03-17T22:24:53.541Z,80.72
2023-03-17T22:26:48.995Z,80.82
2023-03-17T22:28:45.321Z,79.66
2023-03-17T22:30:41.248Z,79.17
2023-03-17T22:32:36.610Z,79.13
2023-03-17T22:34:31.841Z,79.30
2023-03-17T22:36:31.290Z,78.55
2023-03-17T22:38:28.550Z,78.28
2023-03-17T22:40:23.842Z,79.22
2023-03-17T22:42:18.922Z,77.77
2023-03-17T22:44:14.747Z,77.66
2023-03-17T22:46:09.862Z,77.13
2023-03-17T22:48:05.179Z,77.61
2023-03-17T22:50:00.286Z,77.02
2023-03-17T22:51:58.342Z,77.72
2023-03-17T22:53:54.836Z,77.78
2023-03-17T22:55:50.137Z,78.00
2023-03-17T22:57:45.467Z,77.80
2023-03-17T22:59:40.719Z,77.69
2023-03-17T23:01:36.032Z,78.14
2023-03-17T23:03:32.042Z,78.34
2023-03-17T23:05:27.255Z,77.75
2023-03-17T23:07:24.936Z,78.10
2023-03-17T23:09:20.597Z,78.50
2023-03-17T23:11:21.189Z,78.25
2023-03-17T23:13:17.515Z,78.47
2023-03-17T23:15:13.633Z,78.51
2023-03-17T23:17:09.395Z,78.16
2023-03-17T23:19:04.334Z,77.83
2023-03-17T23:21:00.133Z,77.26
2023-03-17T23:22:58.008Z,77.55
2023-03-17T23:24:53.305Z,77.28
2023-03-17T23:26:48.338Z,76.52
2023-03-17T23:28:44.985Z,77.47
2023-03-17T23:30:41.474Z,77.19
2023-03-17T23:32:37.321Z,78.23
2023-03-17T23:34:32.522Z,77.78
2023-03-17T23:36:28.363Z,77.83
2023-03-17T23:38:26.683Z,77.82
2023-03-17T23:40:23.701Z,77.95
2023-03-17T23:42:19.809Z,78.75
2023-03-17T23:44:15.554Z,78.72
2023-03-17T23:46:11.248Z,78.35
2023-03-17T23:48:06.830Z,78.32
2023-03-17T23:50:03.686Z,79.56
2023-03-17T23:51:59.629Z,79.32
2023-03-17T23:53:58.412Z,78.91
2023-03-17T23:55:54.503Z,80.27
2023-03-17T23:57:50.941Z,79.43
2023-03-17T23:59:46.680Z,79.86
